Etusivu
METAR-TAF:

METAR-TAF

Lentoasemat :

Morlaix, Ranska

Leveyspiiri: 48-36N, Pituuspiiri: 3-49W, korkeus merenpinnasta: 84 m

Tämänhetkinen sää

Tämä raportti tehtiin 28 minuuttia sitten, kello 18.00 UTC
Tuuli 9 kn lännestä/luoteesta
Lämpötila 7°C
Kosteus 76%
Ilmanpaine 1006 hPa
Näkyvyys 10 km tai enemmän
ei pilviä alle 1500 m:ssä eikä cumulonimbus-pilviä

METAR: LFRU 121800Z AUTO 30009KT CAVOK 07/03 Q1006

Aika: 19:28 (18:28 UTC)


TAF: puuttuu

Säähavainnot ja -ennusteet yli 4000 lentoasemalta (METAR- ja TAF-raportit).

Käytössä olevat sääasemat on merkitty karttaan keltaisilla ja punaisilla pisteillä.

Aseta hiiri pisteen päälle nähdäksesi sääaseman nimen.

Klikkaa sitten nähdäksesi säähavainnot ja -ennusteet.

Kartan vaihtaminen: klikkaa mustalla rastilla varustettuja vihreitä pisteitä, niin voit zoomata sisään; viivalla varustettua vihreää pistettä, niin voit zoomata ulos tai vihreitä nuolia, niin pääset viereisille kartoille.


METAR-TAF: